createdAt,value
2018-09-25T00:01:51.800Z,4.93
2018-09-25T00:04:25.166Z,5.40
2018-09-25T00:06:58.590Z,13.67
2018-09-25T00:09:32.836Z,7.33
2018-09-25T00:12:07.294Z,6.00
2018-09-25T00:14:40.703Z,8.17
2018-09-25T00:17:15.122Z,5.07
2018-09-25T00:19:48.662Z,4.20
2018-09-25T00:22:22.972Z,16.53
2018-09-25T00:24:56.324Z,7.90
2018-09-25T00:27:30.792Z,3.57
2018-09-25T00:30:05.062Z,5.30
2018-09-25T00:32:39.485Z,6.60
2018-09-25T00:35:13.043Z,10.20
2018-09-25T00:37:47.599Z,12.33
2018-09-25T00:40:20.848Z,6.00
2018-09-25T00:42:54.206Z,4.10
2018-09-25T00:45:28.683Z,8.73
2018-09-25T00:48:02.020Z,11.23
2018-09-25T00:50:35.430Z,4.30
2018-09-25T00:53:08.815Z,4.97
2018-09-25T00:55:43.218Z,5.97
2018-09-25T00:58:16.542Z,4.83
2018-09-25T01:00:49.886Z,9.33
2018-09-25T01:03:23.097Z,4.90
2018-09-25T01:05:57.525Z,10.13
2018-09-25T01:08:32.004Z,7.90
2018-09-25T01:11:05.325Z,10.47
2018-09-25T01:13:38.677Z,5.13
2018-09-25T01:16:13.035Z,7.13
2018-09-25T01:18:46.386Z,4.00
2018-09-25T01:21:20.868Z,7.53
2018-09-25T01:23:54.231Z,7.90
2018-09-25T01:26:28.562Z,4.30
2018-09-25T01:29:01.864Z,2.53
2018-09-25T01:31:35.345Z,6.83
2018-09-25T01:34:08.801Z,4.70
2018-09-25T01:36:42.254Z,5.13
2018-09-25T01:39:17.620Z,5.60
2018-09-25T01:41:51.876Z,5.23
2018-09-25T01:44:25.440Z,11.27
2018-09-25T01:49:50.147Z,10.40
2018-09-25T01:52:23.602Z,6.40
2018-09-25T01:54:56.882Z,4.50
2018-09-25T01:57:30.188Z,8.13
2018-09-25T02:00:03.633Z,7.87
2018-09-25T02:02:36.896Z,14.83
2018-09-25T02:05:10.261Z,6.10
2018-09-25T02:07:43.695Z,4.17
2018-09-25T02:10:18.108Z,6.50
2018-09-25T02:12:51.404Z,8.17
2018-09-25T02:15:25.801Z,6.47
2018-09-25T02:17:59.154Z,4.03
2018-09-25T02:20:32.739Z,7.50
2018-09-25T02:23:06.072Z,11.93
2018-09-25T02:25:39.622Z,7.43
2018-09-25T02:28:12.949Z,6.43
2018-09-25T02:30:46.298Z,10.73
2018-09-25T02:33:19.617Z,9.87
2018-09-25T02:35:52.983Z,7.73
2018-09-25T02:38:26.293Z,7.80
2018-09-25T02:40:59.638Z,4.33
2018-09-25T02:43:33.061Z,5.90
2018-09-25T02:46:06.325Z,7.00
2018-09-25T02:48:39.635Z,7.80
2018-09-25T02:51:13.129Z,3.83
2018-09-25T02:53:46.502Z,10.27
2018-09-25T02:56:20.044Z,9.50
2018-09-25T02:58:53.455Z,6.87
2018-09-25T03:01:26.917Z,8.00
2018-09-25T03:04:00.344Z,11.87
2018-09-25T03:06:33.706Z,10.17
2018-09-25T03:09:07.110Z,9.83
2018-09-25T03:11:40.518Z,8.50
2018-09-25T03:14:13.850Z,14.73
2018-09-25T03:16:47.281Z,9.37
2018-09-25T03:19:20.516Z,8.20
2018-09-25T03:21:55.107Z,12.63
2018-09-25T03:24:28.590Z,11.20
2018-09-25T03:27:01.977Z,10.87
2018-09-25T03:29:35.354Z,9.97
2018-09-25T03:32:08.636Z,9.33
2018-09-25T03:34:43.004Z,13.20
2018-09-25T03:37:16.320Z,12.93
2018-09-25T03:39:49.819Z,9.63
2018-09-25T03:42:23.074Z,8.33
2018-09-25T03:44:56.416Z,17.73
2018-09-25T03:47:29.824Z,9.03
2018-09-25T03:50:03.289Z,14.50
2018-09-25T03:52:36.735Z,11.13
2018-09-25T03:55:09.917Z,7.87
2018-09-25T03:57:43.280Z,11.37
2018-09-25T04:00:18.477Z,3.60
2018-09-25T04:02:51.896Z,6.17
2018-09-25T04:05:25.409Z,12.60
2018-09-25T04:07:58.826Z,7.63
2018-09-25T04:10:32.161Z,6.73
2018-09-25T04:13:05.426Z,7.57
2018-09-25T04:15:38.930Z,16.93
2018-09-25T04:18:12.319Z,12.07
2018-09-25T04:20:45.523Z,5.40
2018-09-25T04:23:19.044Z,8.83
2018-09-25T04:25:52.453Z,6.20
2018-09-25T04:28:25.820Z,7.70
2018-09-25T04:30:59.293Z,9.03
2018-09-25T04:33:32.652Z,9.87
2018-09-25T04:36:06.069Z,10.93
2018-09-25T04:38:39.524Z,6.60
2018-09-25T04:41:12.874Z,8.67
2018-09-25T04:43:46.256Z,7.40
2018-09-25T04:46:20.826Z,4.40
2018-09-25T04:48:54.174Z,9.10
2018-09-25T04:51:28.493Z,8.80
2018-09-25T04:54:01.840Z,9.63
2018-09-25T04:56:35.125Z,11.00
2018-09-25T04:59:08.389Z,6.90
2018-09-25T05:01:41.715Z,11.57
2018-09-25T05:04:15.008Z,10.40
2018-09-25T05:06:48.494Z,12.07
2018-09-25T05:09:21.724Z,16.70
2018-09-25T05:11:55.173Z,6.30
2018-09-25T05:14:28.410Z,7.27
2018-09-25T05:17:01.629Z,10.60
2018-09-25T05:19:35.119Z,5.20
2018-09-25T05:22:08.560Z,9.13
2018-09-25T05:24:42.946Z,6.70
2018-09-25T05:27:16.330Z,7.80
2018-09-25T05:29:49.766Z,11.13
2018-09-25T05:32:23.050Z,16.43
2018-09-25T05:34:56.241Z,8.43
2018-09-25T05:37:29.655Z,9.53
2018-09-25T05:40:02.957Z,8.37
2018-09-25T05:42:38.490Z,9.10
2018-09-25T05:45:11.815Z,8.43
2018-09-25T05:47:45.156Z,10.27
2018-09-25T05:50:18.469Z,8.90
2018-09-25T05:52:51.714Z,12.93
2018-09-25T05:55:25.096Z,6.40
2018-09-25T05:57:58.658Z,8.93
2018-09-25T06:00:32.191Z,10.93
2018-09-25T06:03:05.598Z,9.97
2018-09-25T06:05:38.956Z,13.33
2018-09-25T06:08:13.449Z,6.60
2018-09-25T06:10:46.807Z,14.03
2018-09-25T06:13:20.210Z,9.43
2018-09-25T06:15:58.416Z,7.60
2018-09-25T06:18:32.927Z,14.03
2018-09-25T06:21:06.414Z,9.20
2018-09-25T06:23:39.641Z,10.83
2018-09-25T06:26:13.082Z,9.87
2018-09-25T06:28:46.499Z,10.37
2018-09-25T06:31:19.793Z,9.93
2018-09-25T06:33:53.132Z,8.83
2018-09-25T06:36:27.669Z,11.00
2018-09-25T06:39:01.064Z,6.00
2018-09-25T06:41:36.413Z,12.60
2018-09-25T06:44:09.808Z,8.77
2018-09-25T06:46:43.191Z,7.47
2018-09-25T06:49:16.568Z,5.60
2018-09-25T06:51:49.899Z,7.80
2018-09-25T06:54:23.194Z,10.70
2018-09-25T06:56:56.700Z,5.13
2018-09-25T06:59:30.149Z,6.77
2018-09-25T07:02:03.585Z,9.97
2018-09-25T07:04:36.968Z,6.30
2018-09-25T07:07:10.313Z,11.97
2018-09-25T07:09:44.737Z,5.90
2018-09-25T07:12:18.076Z,10.33
2018-09-25T07:14:51.550Z,5.93
2018-09-25T07:17:25.051Z,9.03
2018-09-25T07:19:58.478Z,7.93
2018-09-25T07:22:31.855Z,9.60
2018-09-25T07:25:05.279Z,9.57
2018-09-25T07:27:38.566Z,7.93
2018-09-25T07:30:11.966Z,6.43
2018-09-25T07:32:45.294Z,9.20
2018-09-25T07:35:18.598Z,6.10
2018-09-25T07:37:51.867Z,9.53
2018-09-25T07:40:26.241Z,9.63
2018-09-25T07:42:59.595Z,7.10
2018-09-25T07:45:32.893Z,11.20
2018-09-25T07:48:06.265Z,6.10
2018-09-25T07:50:39.565Z,8.90
2018-09-25T07:53:15.007Z,6.27
2018-09-25T07:55:48.385Z,6.30
2018-09-25T07:58:21.705Z,6.40
2018-09-25T08:00:55.053Z,7.43
2018-09-25T08:03:28.529Z,5.10
2018-09-25T08:06:01.827Z,13.50
2018-09-25T08:08:35.342Z,11.70
2018-09-25T08:11:08.906Z,14.73
2018-09-25T08:13:42.226Z,8.40
2018-09-25T08:16:15.586Z,10.10
2018-09-25T08:18:49.956Z,7.13
2018-09-25T08:21:23.462Z,4.60
2018-09-25T08:23:56.689Z,8.87
2018-09-25T08:26:31.053Z,11.17
2018-09-25T08:29:04.437Z,8.57
2018-09-25T08:31:37.741Z,13.20
2018-09-25T08:34:12.234Z,6.90
2018-09-25T08:36:45.586Z,8.17
2018-09-25T08:39:19.042Z,14.93
2018-09-25T08:41:52.335Z,10.00
2018-09-25T08:44:25.611Z,10.00
2018-09-25T08:46:59.069Z,4.30
2018-09-25T08:49:32.521Z,11.20
2018-09-25T08:52:06.875Z,7.63
2018-09-25T08:54:41.266Z,10.63
2018-09-25T08:57:15.557Z,6.10
2018-09-25T08:59:48.971Z,5.53
2018-09-25T09:02:23.544Z,8.70
2018-09-25T09:04:56.885Z,5.93
2018-09-25T09:07:31.196Z,5.60
2018-09-25T09:10:04.660Z,10.40
2018-09-25T09:12:37.893Z,7.63
2018-09-25T09:15:11.225Z,7.50
2018-09-25T09:17:44.733Z,5.53
2018-09-25T09:20:18.125Z,3.60
2018-09-25T09:22:51.525Z,10.33
2018-09-25T09:25:25.055Z,9.63
2018-09-25T09:27:58.370Z,9.17
2018-09-25T09:30:31.801Z,4.83
2018-09-25T09:33:05.247Z,8.63
2018-09-25T09:35:39.670Z,6.90
2018-09-25T09:38:13.038Z,8.13
2018-09-25T09:40:47.453Z,13.20
2018-09-25T09:43:20.840Z,4.77
2018-09-25T09:45:55.249Z,15.33
2018-09-25T09:48:28.648Z,4.60
2018-09-25T09:51:01.998Z,7.93
2018-09-25T09:53:36.472Z,4.10
2018-09-25T09:56:09.923Z,2.60
2018-09-25T09:58:43.297Z,5.73
2018-09-25T10:01:16.801Z,4.30
2018-09-25T10:03:50.252Z,6.87
2018-09-25T10:06:23.694Z,10.77
2018-09-25T10:08:57.119Z,6.13
2018-09-25T10:11:33.573Z,7.77
2018-09-25T10:14:07.071Z,3.50
2018-09-25T10:16:40.446Z,5.40
2018-09-25T10:19:13.825Z,13.03
2018-09-25T10:21:47.302Z,8.20
2018-09-25T10:24:20.633Z,5.93
2018-09-25T10:26:54.220Z,5.17
2018-09-25T10:29:27.627Z,5.60
2018-09-25T10:32:01.025Z,6.63
2018-09-25T10:34:34.285Z,3.10
2018-09-25T10:37:07.840Z,6.07
2018-09-25T10:39:41.230Z,11.53
2018-09-25T10:42:14.626Z,3.63
2018-09-25T10:44:48.034Z,4.07
2018-09-25T10:47:21.335Z,7.10
2018-09-25T10:49:54.752Z,6.00
2018-09-25T10:52:29.101Z,2.37
2018-09-25T10:55:02.519Z,4.03
2018-09-25T10:57:37.816Z,2.77
2018-09-25T11:00:11.164Z,4.93
2018-09-25T11:02:44.663Z,7.47
2018-09-25T11:05:18.030Z,6.80
2018-09-25T11:07:51.436Z,6.00
2018-09-25T11:10:24.776Z,4.20
2018-09-25T11:12:58.241Z,11.00
2018-09-25T11:15:31.519Z,2.87
2018-09-25T11:18:04.850Z,4.43
2018-09-25T11:20:38.209Z,6.30
2018-09-25T11:23:11.611Z,3.50
2018-09-25T11:25:45.111Z,3.73
2018-09-25T11:28:18.511Z,3.83
2018-09-25T11:30:51.796Z,4.90
2018-09-25T11:33:25.354Z,2.67
2018-09-25T11:35:58.691Z,6.30
2018-09-25T11:38:34.206Z,4.37
2018-09-25T11:41:07.399Z,4.77
2018-09-25T11:43:40.794Z,3.87
2018-09-25T11:46:14.299Z,5.27
2018-09-25T11:48:47.840Z,5.87
2018-09-25T11:51:21.166Z,3.30
2018-09-25T11:53:54.579Z,7.73
2018-09-25T11:56:27.987Z,4.47
2018-09-25T11:59:02.341Z,2.90
2018-09-25T12:01:35.646Z,4.00
2018-09-25T12:04:08.946Z,4.03
2018-09-25T12:06:42.284Z,3.40
2018-09-25T12:09:15.856Z,4.23
2018-09-25T12:11:49.166Z,3.30
2018-09-25T12:14:22.448Z,4.87
2018-09-25T12:16:55.772Z,4.53
2018-09-25T12:19:29.058Z,10.20
2018-09-25T12:22:02.525Z,3.63
2018-09-25T12:24:36.894Z,3.70
2018-09-25T12:27:10.434Z,3.80
2018-09-25T12:29:43.927Z,2.57
2018-09-25T12:32:17.447Z,2.53
2018-09-25T12:34:50.845Z,6.43
2018-09-25T12:37:24.227Z,2.83
2018-09-25T12:39:57.501Z,4.00
2018-09-25T12:42:30.906Z,2.17
2018-09-25T12:45:04.201Z,3.03
2018-09-25T12:47:37.812Z,3.23
2018-09-25T12:50:11.341Z,3.10
2018-09-25T12:52:44.719Z,4.43
2018-09-25T12:55:18.123Z,6.67
2018-09-25T12:57:51.405Z,2.07
2018-09-25T13:00:24.798Z,2.43
2018-09-25T13:02:58.165Z,4.33
2018-09-25T13:05:31.458Z,7.57
2018-09-25T13:08:04.825Z,3.13
2018-09-25T13:10:38.090Z,3.20
2018-09-25T13:13:11.738Z,3.40
2018-09-25T13:15:45.160Z,4.93
2018-09-25T13:18:18.545Z,4.50
2018-09-25T13:20:51.937Z,2.07
2018-09-25T13:23:25.371Z,5.43
2018-09-25T13:25:58.816Z,2.60
2018-09-25T13:28:32.282Z,5.63
2018-09-25T13:31:06.676Z,6.50
2018-09-25T13:33:40.048Z,3.97
2018-09-25T13:36:13.391Z,4.50
2018-09-25T13:38:46.649Z,5.90
2018-09-25T13:41:20.075Z,3.23
2018-09-25T13:43:53.343Z,2.13
2018-09-25T13:46:26.678Z,5.20
2018-09-25T13:49:00.011Z,5.80
2018-09-25T13:51:33.409Z,3.27
2018-09-25T13:54:06.802Z,4.50
2018-09-25T13:56:40.336Z,4.87
2018-09-25T13:59:13.839Z,2.13
2018-09-25T14:01:47.149Z,1.50
2018-09-25T14:04:20.551Z,3.40
2018-09-25T14:06:53.881Z,5.43
2018-09-25T14:09:27.323Z,4.13
2018-09-25T14:12:00.744Z,5.47
2018-09-25T14:14:34.251Z,2.23
2018-09-25T14:17:07.809Z,2.90
2018-09-25T14:19:41.316Z,3.63
2018-09-25T14:22:14.748Z,4.63
2018-09-25T14:24:48.130Z,2.40
2018-09-25T14:27:21.521Z,2.60
2018-09-25T14:29:54.853Z,2.63
2018-09-25T14:32:28.249Z,6.57
2018-09-25T14:35:01.749Z,4.27
2018-09-25T14:37:35.115Z,2.27
2018-09-25T14:40:08.426Z,3.13
2018-09-25T14:42:41.762Z,4.27
2018-09-25T14:45:15.080Z,2.70
2018-09-25T14:47:48.528Z,1.53
2018-09-25T14:50:21.826Z,1.73
2018-09-25T14:52:56.108Z,4.27
2018-09-25T14:55:29.473Z,5.40
2018-09-25T14:58:02.994Z,3.63
2018-09-25T15:00:36.383Z,2.40
2018-09-25T15:03:09.724Z,3.23
2018-09-25T15:05:43.020Z,2.40
2018-09-25T15:08:16.326Z,6.67
2018-09-25T15:10:49.830Z,2.73
2018-09-25T15:13:23.368Z,3.00
2018-09-25T15:15:56.723Z,4.37
2018-09-25T15:18:30.195Z,1.67
2018-09-25T15:21:03.540Z,2.90
2018-09-25T15:23:36.890Z,3.03
2018-09-25T15:26:10.274Z,4.00
2018-09-25T15:28:43.529Z,3.97
2018-09-25T15:31:16.971Z,2.20
2018-09-25T15:33:50.298Z,2.30
2018-09-25T15:36:23.619Z,2.13
2018-09-25T15:38:56.987Z,3.20
2018-09-25T15:41:30.345Z,2.87
2018-09-25T15:44:03.711Z,3.30
2018-09-25T15:46:37.237Z,3.00
2018-09-25T15:49:10.622Z,3.77
2018-09-25T15:51:43.903Z,3.00
2018-09-25T15:54:17.197Z,4.77
2018-09-25T15:56:50.412Z,5.53
2018-09-25T15:59:23.919Z,4.40
2018-09-25T16:01:57.304Z,9.93
2018-09-25T16:04:30.678Z,2.27
2018-09-25T16:07:04.009Z,4.13
2018-09-25T16:09:37.526Z,2.80
2018-09-25T16:12:11.053Z,6.53
2018-09-25T16:14:44.514Z,5.97
2018-09-25T16:17:17.932Z,3.33
2018-09-25T16:19:51.388Z,4.40
2018-09-25T16:22:24.841Z,6.93
2018-09-25T16:24:58.222Z,4.80
2018-09-25T16:27:31.771Z,4.00
2018-09-25T16:30:05.093Z,3.30
2018-09-25T16:32:38.665Z,3.73
2018-09-25T16:35:12.063Z,5.27
2018-09-25T16:37:45.445Z,8.67
2018-09-25T16:40:18.746Z,15.60
2018-09-25T16:42:52.106Z,8.60
2018-09-25T16:45:25.499Z,8.30
2018-09-25T16:47:58.943Z,11.00
2018-09-25T16:50:32.268Z,8.43
2018-09-25T16:53:05.702Z,5.17
2018-09-25T16:55:39.244Z,3.90
2018-09-25T16:58:12.536Z,4.40
2018-09-25T17:00:46.902Z,5.40
2018-09-25T17:03:20.274Z,4.00
2018-09-25T17:05:53.724Z,3.77
2018-09-25T17:08:27.011Z,4.37
2018-09-25T17:11:00.381Z,5.27
2018-09-25T17:13:33.908Z,6.93
2018-09-25T17:16:07.167Z,6.47
2018-09-25T17:18:40.554Z,8.70
2018-09-25T17:21:13.987Z,5.43
2018-09-25T17:23:47.364Z,6.13
2018-09-25T17:26:20.734Z,6.67
2018-09-25T17:28:54.117Z,11.53
2018-09-25T17:31:27.446Z,5.60
2018-09-25T17:34:00.794Z,7.53
2018-09-25T17:36:34.275Z,10.07
2018-09-25T17:39:07.631Z,5.90
2018-09-25T17:41:40.932Z,9.10
2018-09-25T17:44:14.321Z,9.93
2018-09-25T17:46:47.658Z,7.73
2018-09-25T17:49:21.088Z,11.03
2018-09-25T17:51:55.247Z,10.27
2018-09-25T17:54:28.708Z,7.90
2018-09-25T17:57:02.210Z,11.70
2018-09-25T17:59:35.677Z,10.80
2018-09-25T18:02:10.071Z,9.57
2018-09-25T18:04:43.406Z,10.10
2018-09-25T18:07:18.043Z,11.60
2018-09-25T18:09:51.772Z,13.33
2018-09-25T18:12:25.240Z,21.20
2018-09-25T18:14:59.017Z,19.73
2018-09-25T18:17:32.623Z,21.43
2018-09-25T18:20:06.243Z,19.60
2018-09-25T18:22:39.927Z,18.83
2018-09-25T18:25:13.412Z,14.77
2018-09-25T18:27:46.981Z,9.80
2018-09-25T18:30:20.602Z,14.27
2018-09-25T18:32:54.381Z,17.53
2018-09-25T18:35:28.944Z,14.80
2018-09-25T18:38:02.345Z,12.80
2018-09-25T18:40:35.975Z,11.97
2018-09-25T18:43:09.667Z,12.77
2018-09-25T18:45:43.152Z,12.70
2018-09-25T18:48:17.599Z,13.03
2018-09-25T18:50:51.396Z,14.67
2018-09-25T18:53:25.116Z,16.30
2018-09-25T18:55:58.718Z,15.37
2018-09-25T18:58:32.128Z,14.43
2018-09-25T19:01:05.559Z,16.80
2018-09-25T19:03:39.860Z,16.13
2018-09-25T19:06:15.052Z,15.40
2018-09-25T19:08:48.449Z,15.53
2018-09-25T19:11:21.855Z,13.43
2018-09-25T19:13:55.343Z,13.00
2018-09-25T19:16:28.741Z,13.40
2018-09-25T19:19:02.041Z,20.70
2018-09-25T19:21:35.664Z,13.50
2018-09-25T19:24:09.069Z,16.77
2018-09-25T19:26:42.474Z,10.03
2018-09-25T19:29:15.811Z,9.87
2018-09-25T19:31:49.050Z,13.40
2018-09-25T19:34:22.398Z,8.87
2018-09-25T19:36:55.686Z,9.60
2018-09-25T19:39:29.050Z,10.17
2018-09-25T19:42:02.579Z,11.90
2018-09-25T19:44:35.993Z,14.57
2018-09-25T19:47:09.378Z,13.10
2018-09-25T19:49:42.760Z,19.43
2018-09-25T19:52:16.232Z,14.00
2018-09-25T19:54:49.549Z,14.90
2018-09-25T19:57:22.947Z,14.37
2018-09-25T19:59:56.367Z,14.17
2018-09-25T20:02:29.697Z,22.17
2018-09-25T20:05:03.084Z,17.73
2018-09-25T20:07:36.567Z,15.03
2018-09-25T20:10:10.306Z,20.67
2018-09-25T20:12:43.877Z,14.33
2018-09-25T20:15:17.296Z,15.27
2018-09-25T20:17:50.945Z,12.77
2018-09-25T20:20:24.588Z,13.47
2018-09-25T20:22:57.986Z,14.37
2018-09-25T20:25:31.339Z,13.43
2018-09-25T20:28:04.882Z,15.47
2018-09-25T20:30:38.281Z,15.90
2018-09-25T20:33:11.766Z,15.23
2018-09-25T20:35:45.190Z,16.27
2018-09-25T20:38:18.521Z,15.13
2018-09-25T20:40:52.138Z,28.23
2018-09-25T20:43:25.642Z,15.53
2018-09-25T20:45:58.860Z,14.60
2018-09-25T20:48:32.422Z,26.93
2018-09-25T20:51:05.750Z,18.77
2018-09-25T20:53:39.178Z,13.97
2018-09-25T20:56:12.460Z,15.37
2018-09-25T20:58:45.934Z,11.70
2018-09-25T21:01:19.313Z,17.37
2018-09-25T21:03:52.566Z,11.53
2018-09-25T21:06:26.090Z,15.47
2018-09-25T21:08:59.578Z,12.60
2018-09-25T21:11:33.047Z,14.40
2018-09-25T21:14:07.097Z,10.23
2018-09-25T21:16:40.432Z,15.27
2018-09-25T21:19:13.922Z,15.00
2018-09-25T21:21:47.406Z,11.07
2018-09-25T21:24:20.766Z,11.77
2018-09-25T21:26:54.061Z,18.43
2018-09-25T21:29:27.450Z,16.77
2018-09-25T21:32:00.852Z,14.40
2018-09-25T21:34:34.365Z,13.80
2018-09-25T21:37:07.761Z,17.70
2018-09-25T21:39:41.206Z,13.60
2018-09-25T21:42:14.697Z,16.10
2018-09-25T21:44:48.162Z,11.10
2018-09-25T21:47:21.719Z,17.63
2018-09-25T21:49:55.193Z,14.33
2018-09-25T21:52:28.507Z,11.77
2018-09-25T21:55:02.052Z,14.67
2018-09-25T21:57:35.605Z,13.10
2018-09-25T22:00:08.953Z,14.03
2018-09-25T22:02:43.310Z,13.20
2018-09-25T22:05:16.842Z,9.97
2018-09-25T22:07:50.201Z,11.03
2018-09-25T22:10:23.791Z,12.70
2018-09-25T22:12:57.077Z,14.47
2018-09-25T22:15:30.453Z,13.60
2018-09-25T22:18:03.878Z,14.20
2018-09-25T22:20:38.317Z,15.47
2018-09-25T22:23:11.896Z,14.13
2018-09-25T22:25:45.272Z,13.77
2018-09-25T22:28:19.574Z,16.67
2018-09-25T22:30:52.940Z,12.20
2018-09-25T22:33:26.422Z,11.27
2018-09-25T22:35:59.869Z,13.40
2018-09-25T22:38:33.105Z,13.07
2018-09-25T22:41:07.562Z,10.67
2018-09-25T22:43:41.029Z,10.07
2018-09-25T22:46:14.442Z,9.90
2018-09-25T22:48:47.989Z,10.00
2018-09-25T22:51:21.413Z,9.33
2018-09-25T22:53:54.812Z,11.10
2018-09-25T22:56:28.265Z,8.00
2018-09-25T22:59:02.697Z,7.50
2018-09-25T23:01:35.998Z,6.90
2018-09-25T23:04:09.257Z,6.70
2018-09-25T23:06:42.608Z,7.97
2018-09-25T23:09:16.067Z,10.83
2018-09-25T23:11:49.417Z,8.57
2018-09-25T23:14:22.842Z,6.70
2018-09-25T23:16:56.223Z,14.47
2018-09-25T23:19:29.802Z,8.60
2018-09-25T23:22:03.077Z,7.30
2018-09-25T23:24:36.556Z,12.93
2018-09-25T23:27:09.997Z,9.23
2018-09-25T23:29:43.434Z,5.40
2018-09-25T23:32:16.845Z,7.33
2018-09-25T23:34:50.142Z,8.73
2018-09-25T23:37:23.302Z,15.90
2018-09-25T23:40:57.388Z,7.43
2018-09-25T23:43:30.831Z,7.33
2018-09-25T23:46:04.222Z,7.63
2018-09-25T23:48:57.765Z,10.20
2018-09-25T23:51:31.458Z,5.70
2018-09-25T23:54:03.821Z,10.47
2018-09-25T23:56:37.192Z,4.97
